Time;durP1;ratioP1;P1;durP2;ratioP2;P2;SDS_P1;SDS_P2;PMS_P1;PMS_P2;Temp;Humidity;BMP_temperature;BMP_pressure;BME280_temperature;BME280_humidity;BME280_pressure;Samples;Min_cycle;Max_cycle;Signal;HPM_P1;HPM_P2
2022/02/27 00:00:12;;;;;;;11.08;2.90;;;;;;;4.31;52.29;101905.52;1741037;80;21053;-54
2022/02/27 00:02:42;;;;;;;5.65;2.55;;;;;;;4.31;52.47;101913.33;1736031;82;21065;-54
2022/02/27 00:05:09;;;;;;;7.37;2.60;;;;;;;4.31;52.63;101910.72;1717624;80;21034;-54
2022/02/27 00:07:37;;;;;;;5.80;2.33;;;;;;;4.33;52.84;101913.29;1742223;82;22536;-55
2022/02/27 00:10:05;;;;;;;5.87;2.52;;;;;;;4.32;52.92;101916.35;1738766;80;21070;-55
2022/02/27 00:12:31;;;;;;;8.08;2.15;;;;;;;4.32;52.96;101915.48;1742525;80;21124;-55
2022/02/27 00:14:57;;;;;;;7.83;2.70;;;;;;;4.33;52.99;101910.69;1739613;80;21082;-54
2022/02/27 00:17:24;;;;;;;7.22;2.67;;;;;;;4.32;53.03;101910.27;1717006;80;21117;-55
2022/02/27 00:19:50;;;;;;;5.45;2.10;;;;;;;4.31;53.16;101915.09;1717746;82;21073;-54
2022/02/27 00:22:16;;;;;;;6.75;2.30;;;;;;;4.30;53.28;101912.91;1733557;80;21116;-55
2022/02/27 00:24:43;;;;;;;9.70;2.72;;;;;;;4.29;53.43;101911.23;1716152;80;21088;-54
2022/02/27 00:27:09;;;;;;;5.55;2.75;;;;;;;4.26;53.49;101912.61;1740849;80;21154;-54
2022/02/27 00:29:36;;;;;;;6.70;2.42;;;;;;;4.24;53.58;101912.66;1726159;80;21029;-55
2022/02/27 00:32:03;;;;;;;7.50;2.87;;;;;;;4.22;53.67;101913.16;1734716;81;22042;-54
2022/02/27 00:34:31;;;;;;;7.42;2.52;;;;;;;4.19;53.73;101904.58;1736634;81;21065;-55
2022/02/27 00:36:57;;;;;;;7.10;2.65;;;;;;;4.17;53.85;101906.34;1712165;80;21058;-54
2022/02/27 00:39:23;;;;;;;6.35;2.37;;;;;;;4.14;54.00;101909.07;1728973;80;21092;-54
2022/02/27 00:41:50;;;;;;;9.65;2.33;;;;;;;4.11;54.14;101906.55;1723940;80;21451;-54
2022/02/27 00:44:16;;;;;;;8.75;2.65;;;;;;;4.07;54.25;101916.20;1724871;80;21120;-54
2022/02/27 00:46:43;;;;;;;5.03;2.08;;;;;;;4.04;54.41;101917.59;1724880;80;21588;-54
2022/02/27 00:49:09;;;;;;;7.42;2.50;;;;;;;4.00;54.51;101919.86;1737430;80;21062;-54
2022/02/27 00:51:35;;;;;;;6.05;2.70;;;;;;;3.98;54.60;101916.45;1730861;80;21698;-55
2022/02/27 00:54:03;;;;;;;9.05;3.27;;;;;;;3.93;54.67;101915.27;1723018;81;21112;-56
2022/02/27 00:56:30;;;;;;;7.33;2.40;;;;;;;3.91;54.77;101913.16;1740333;80;21161;-55
2022/02/27 00:58:56;;;;;;;7.67;3.12;;;;;;;3.88;54.84;101919.32;1739659;81;21035;-54
2022/02/27 01:01:23;;;;;;;6.92;2.22;;;;;;;3.85;54.94;101913.31;1745528;80;21407;-55
2022/02/27 01:03:50;;;;;;;9.10;3.27;;;;;;;3.83;55.08;101917.30;1745659;80;20998;-54
2022/02/27 01:06:16;;;;;;;6.40;2.47;;;;;;;3.80;55.19;101912.16;1710830;81;21090;-55
2022/02/27 01:08:44;;;;;;;6.10;2.80;;;;;;;3.76;55.26;101904.47;1736873;81;21621;-54
2022/02/27 01:11:11;;;;;;;6.22;2.60;;;;;;;3.72;55.43;101911.52;1723103;81;21096;-55
2022/02/27 01:13:38;;;;;;;5.65;2.52;;;;;;;3.67;55.54;101908.18;1680947;83;21078;-54
2022/02/27 01:16:07;;;;;;;5.80;2.58;;;;;;;3.64;55.72;101909.56;1728682;80;21169;-55
2022/02/27 01:18:33;;;;;;;9.40;2.10;;;;;;;3.60;55.94;101907.91;1728117;82;21076;-54
2022/02/27 01:21:01;;;;;;;11.48;2.90;;;;;;;3.55;56.07;101905.45;1744028;80;21074;-54
2022/02/27 01:23:27;;;;;;;10.63;2.47;;;;;;;3.50;56.26;101908.17;1739019;80;22731;-55
2022/02/27 01:25:54;;;;;;;6.37;2.25;;;;;;;3.45;56.42;101904.84;1712210;82;21072;-54
2022/02/27 01:28:20;;;;;;;9.33;2.92;;;;;;;3.41;56.60;101903.64;1720007;80;21583;-55
2022/02/27 01:30:47;;;;;;;6.72;2.70;;;;;;;3.37;56.74;101906.78;1744090;80;20998;-54
2022/02/27 01:33:15;;;;;;;8.63;3.15;;;;;;;3.34;56.89;101910.75;1745820;80;21131;-54
2022/02/27 01:35:41;;;;;;;8.00;2.72;;;;;;;3.29;56.93;101912.16;1717365;81;21703;-54
2022/02/27 01:38:08;;;;;;;7.87;3.00;;;;;;;3.25;57.13;101904.50;1732584;80;21050;-54
2022/02/27 01:40:34;;;;;;;6.50;2.65;;;;;;;3.23;57.20;101910.16;1705123;80;21110;-55
2022/02/27 01:43:03;;;;;;;8.18;2.50;;;;;;;3.20;57.37;101904.60;1722620;81;21176;-55
2022/02/27 01:45:29;;;;;;;7.28;2.30;;;;;;;3.15;57.54;101904.70;1737559;80;21448;-56
2022/02/27 01:47:56;;;;;;;8.90;2.65;;;;;;;3.10;57.65;101902.67;1717368;80;22273;-56
2022/02/27 01:50:22;;;;;;;9.38;3.00;;;;;;;3.08;57.79;101904.45;1750699;79;21065;-55
2022/02/27 01:52:49;;;;;;;8.25;2.65;;;;;;;3.06;57.87;101905.38;1721081;81;21556;-54
2022/02/27 01:55:15;;;;;;;7.25;2.37;;;;;;;3.03;57.96;101907.62;1739779;81;21005;-55
2022/02/27 01:57:42;;;;;;;6.92;2.45;;;;;;;3.01;58.03;101906.81;1738298;80;22261;-54
2022/02/27 02:00:10;;;;;;;5.30;2.27;;;;;;;2.98;58.15;101900.38;1713917;81;21080;-55
2022/02/27 02:02:44;;;;;;;8.25;2.65;;;;;;;2.97;58.19;101901.25;1719920;81;21565;-54
2022/02/27 02:05:11;;;;;;;6.30;2.00;;;;;;;2.94;58.30;101899.59;1740767;80;21061;-54
2022/02/27 02:07:40;;;;;;;6.92;2.55;;;;;;;2.93;58.31;101896.58;1741285;80;21104;-54
2022/02/27 02:10:07;;;;;;;6.42;2.60;;;;;;;2.91;58.33;101900.97;1759329;80;21157;-54
2022/02/27 02:12:36;;;;;;;6.62;2.65;;;;;;;2.90;58.37;101896.64;1737310;80;21106;-55
2022/02/27 02:15:03;;;;;;;12.23;2.37;;;;;;;2.89;58.38;101896.25;1740095;80;21085;-55
2022/02/27 02:17:30;;;;;;;7.60;2.77;;;;;;;2.89;58.35;101897.55;1730349;80;21100;-55
2022/02/27 02:19:56;;;;;;;6.00;2.37;;;;;;;2.90;58.22;101907.50;1736193;80;21677;-54
2022/02/27 02:22:23;;;;;;;5.15;2.05;;;;;;;2.88;58.21;101902.33;1722991;80;21131;-55
2022/02/27 02:24:50;;;;;;;5.40;2.02;;;;;;;2.89;58.13;101910.98;1733167;81;21454;-55
2022/02/27 02:27:16;;;;;;;4.80;2.12;;;;;;;2.86;58.08;101908.45;1740913;80;21058;-54
2022/02/27 02:29:43;;;;;;;8.88;2.12;;;;;;;2.84;58.08;101904.61;1738834;80;21525;-55
2022/02/27 02:32:11;;;;;;;7.67;2.05;;;;;;;2.80;58.17;101904.25;1673549;83;21722;-55
2022/02/27 02:34:38;;;;;;;8.40;2.92;;;;;;;2.81;58.25;101906.40;1718590;82;21685;-54
2022/02/27 02:37:05;;;;;;;6.62;2.47;;;;;;;2.79;58.33;101902.11;1735911;80;21192;-54
2022/02/27 02:39:32;;;;;;;4.70;2.00;;;;;;;2.83;58.26;101899.44;1742284;80;21144;-54
2022/02/27 02:41:59;;;;;;;6.50;2.02;;;;;;;2.82;58.27;101906.36;1706955;81;21077;-55
2022/02/27 02:44:30;;;;;;;6.17;2.00;;;;;;;2.81;58.35;101907.70;1698375;83;21038;-54
2022/02/27 02:46:57;;;;;;;9.88;2.45;;;;;;;2.82;58.51;101910.27;1680086;83;21533;-55
2022/02/27 02:49:24;;;;;;;6.50;2.27;;;;;;;2.82;58.54;101906.36;1747708;80;21034;-54
2022/02/27 02:51:52;;;;;;;5.45;1.82;;;;;;;2.86;58.50;101914.95;1734201;80;21089;-54
2022/02/27 02:54:18;;;;;;;6.75;2.47;;;;;;;2.87;58.45;101908.86;1741083;80;21073;-54
2022/02/27 02:56:45;;;;;;;7.45;2.52;;;;;;;2.92;58.37;101916.11;1738902;80;21050;-54
2022/02/27 02:59:11;;;;;;;6.45;2.35;;;;;;;2.90;58.35;101916.14;1718226;81;21114;-55
2022/02/27 03:01:37;;;;;;;5.83;2.17;;;;;;;2.93;58.31;101916.53;1737052;80;21212;-55
2022/02/27 03:04:04;;;;;;;8.25;2.30;;;;;;;2.91;58.33;101923.06;1735967;82;21027;-55
2022/02/27 03:06:32;;;;;;;10.58;2.50;;;;;;;2.92;58.33;101918.25;1739008;80;21109;-55
2022/02/27 03:08:58;;;;;;;6.65;2.55;;;;;;;2.93;58.33;101921.28;1740997;82;21561;-54
2022/02/27 03:11:26;;;;;;;6.37;2.25;;;;;;;2.95;58.33;101926.45;1745255;80;21042;-55
2022/02/27 03:13:52;;;;;;;7.90;2.75;;;;;;;2.97;58.29;101922.91;1745687;81;21041;-55
2022/02/27 03:16:18;;;;;;;5.53;2.20;;;;;;;2.96;58.31;101925.11;1732520;80;21646;-55
2022/02/27 03:18:46;;;;;;;6.95;2.75;;;;;;;2.98;58.30;101928.98;1712088;82;21003;-55
2022/02/27 03:21:13;;;;;;;7.28;2.60;;;;;;;2.96;58.37;101932.07;1725151;80;21551;-54
2022/02/27 03:23:39;;;;;;;7.03;2.60;;;;;;;2.94;58.44;101931.22;1735991;81;21178;-56
2022/02/27 03:26:05;;;;;;;9.28;2.55;;;;;;;2.91;58.55;101932.63;1745950;80;21529;-54
2022/02/27 03:28:32;;;;;;;12.43;2.70;;;;;;;2.90;58.68;101937.40;1737126;82;21042;-54
2022/02/27 03:30:58;;;;;;;8.50;2.83;;;;;;;2.87;58.78;101937.01;1739579;80;21537;-55
2022/02/27 03:33:25;;;;;;;5.25;2.47;;;;;;;2.88;58.93;101938.73;1717315;82;21169;-55
2022/02/27 03:35:51;;;;;;;8.88;2.90;;;;;;;2.89;58.95;101935.68;1738171;81;21636;-54
2022/02/27 03:38:18;;;;;;;7.05;2.45;;;;;;;2.91;59.00;101944.32;1737948;80;21083;-54
2022/02/27 03:40:44;;;;;;;7.15;2.50;;;;;;;2.96;58.97;101937.27;1739571;80;21693;-55
2022/02/27 03:43:11;;;;;;;5.65;2.50;;;;;;;2.98;59.00;101939.38;1735842;80;21056;-55
2022/02/27 03:45:37;;;;;;;7.83;2.92;;;;;;;3.01;58.99;101943.22;1736598;80;21555;-54
2022/02/27 03:48:04;;;;;;;8.03;2.98;;;;;;;3.00;59.02;101944.09;1719585;80;21100;-55
2022/02/27 03:50:31;;;;;;;6.47;3.12;;;;;;;3.02;59.05;101952.70;1717006;82;21061;-55
2022/02/27 03:52:57;;;;;;;7.53;3.05;;;;;;;3.03;58.99;101947.08;1739843;80;21035;-55
2022/02/27 03:55:23;;;;;;;9.70;3.12;;;;;;;3.04;58.94;101958.72;1740511;82;21081;-55
2022/02/27 03:57:50;;;;;;;6.60;3.12;;;;;;;3.04;58.89;101955.27;1739798;80;21065;-55
2022/02/27 04:00:17;;;;;;;7.30;3.27;;;;;;;3.05;58.75;101955.24;1757615;79;21056;-54
2022/02/27 04:02:47;;;;;;;9.45;4.12;;;;;;;3.07;58.63;101956.05;1738007;80;21089;-55
2022/02/27 04:05:15;;;;;;;8.60;3.72;;;;;;;3.08;58.49;101954.33;1739501;82;21544;-55
2022/02/27 04:07:42;;;;;;;9.30;3.72;;;;;;;3.11;58.34;101955.11;1737035;80;21041;-55
2022/02/27 04:10:09;;;;;;;9.38;4.95;;;;;;;3.12;58.18;101963.76;1738003;81;21517;-55
2022/02/27 04:12:37;;;;;;;11.45;4.67;;;;;;;3.12;58.11;101965.91;1731586;81;22066;-55
2022/02/27 04:15:05;;;;;;;16.40;6.03;;;;;;;3.13;57.97;101970.68;1745126;80;21083;-55
2022/02/27 04:17:32;;;;;;;12.50;5.62;;;;;;;3.12;57.80;101970.26;1741334;80;21541;-54
2022/02/27 04:19:59;;;;;;;10.00;5.62;;;;;;;3.11;57.65;101967.23;1736611;80;21057;-54
2022/02/27 04:22:27;;;;;;;13.18;6.72;;;;;;;3.04;57.55;101973.02;1725348;80;22159;-55
2022/02/27 04:24:53;;;;;;;10.63;5.35;;;;;;;2.98;57.66;101972.73;1701197;82;21244;-55
2022/02/27 04:27:20;;;;;;;10.63;6.33;;;;;;;2.98;57.66;101983.59;1682828;83;21576;-54
2022/02/27 04:29:46;;;;;;;11.33;4.90;;;;;;;3.01;57.77;101982.64;1700133;83;21148;-55
2022/02/27 04:32:13;;;;;;;15.32;6.53;;;;;;;3.04;57.72;101978.68;1738387;80;21788;-55
2022/02/27 04:34:40;;;;;;;11.55;5.85;;;;;;;3.06;57.71;101986.00;1740269;80;21045;-55
2022/02/27 04:37:06;;;;;;;10.40;5.42;;;;;;;3.09;57.67;101985.51;1735346;80;21920;-55
2022/02/27 04:39:32;;;;;;;12.78;5.25;;;;;;;3.11;57.67;101994.12;1719015;81;21032;-54
2022/02/27 04:41:59;;;;;;;9.40;4.83;;;;;;;3.12;57.71;101988.02;1737776;80;21486;-55
2022/02/27 04:44:26;;;;;;;11.95;4.67;;;;;;;3.14;57.67;101993.18;1750770;80;21148;-55
2022/02/27 04:46:52;;;;;;;12.25;5.05;;;;;;;3.13;57.61;101989.73;1758610;80;21735;-55
2022/02/27 04:49:19;;;;;;;9.43;4.10;;;;;;;3.14;57.67;101994.48;1753479;80;21092;-54
2022/02/27 04:51:45;;;;;;;10.58;4.20;;;;;;;3.13;57.59;101996.23;1736012;80;21269;-54
2022/02/27 04:54:11;;;;;;;7.70;3.55;;;;;;;3.11;57.66;101999.75;1728561;80;21097;-54
2022/02/27 04:56:38;;;;;;;8.63;4.35;;;;;;;3.09;57.73;102002.41;1764285;79;21054;-54
2022/02/27 04:59:05;;;;;;;11.03;4.70;;;;;;;3.09;57.77;101997.63;1714086;82;21074;-54
2022/02/27 05:01:32;;;;;;;8.38;4.50;;;;;;;3.08;57.74;102004.59;1715350;80;21164;-54
2022/02/27 05:03:58;;;;;;;7.55;4.12;;;;;;;3.08;57.88;102005.89;1718194;82;21097;-54
2022/02/27 05:06:25;;;;;;;15.55;4.28;;;;;;;3.09;57.92;102006.31;1734432;80;21112;-55
2022/02/27 05:08:51;;;;;;;9.65;4.72;;;;;;;3.07;58.05;101998.12;1733450;80;21058;-54
2022/02/27 05:11:17;;;;;;;8.73;3.75;;;;;;;3.07;58.04;102004.17;1734256;80;21071;-54
2022/02/27 05:13:45;;;;;;;9.00;4.20;;;;;;;3.07;58.08;101997.67;1726941;81;21100;-54
2022/02/27 05:16:11;;;;;;;7.28;3.58;;;;;;;3.08;58.07;102007.65;1719937;80;21573;-54
2022/02/27 05:18:38;;;;;;;9.15;4.15;;;;;;;3.09;58.05;102006.31;1735825;80;21049;-54
2022/02/27 05:21:05;;;;;;;9.55;4.58;;;;;;;3.11;58.03;102004.53;1730714;80;21077;-54
2022/02/27 05:23:33;;;;;;;8.60;4.40;;;;;;;3.14;57.99;102001.86;1708630;82;21071;-54
2022/02/27 05:25:59;;;;;;;11.48;5.30;;;;;;;3.17;57.95;102002.22;1708463;80;21161;-53
2022/02/27 05:28:27;;;;;;;11.45;5.90;;;;;;;3.19;57.75;102008.23;1735260;80;21092;-54
2022/02/27 05:30:54;;;;;;;11.68;5.83;;;;;;;3.19;57.71;102004.33;1742917;80;21602;-53
2022/02/27 05:33:22;;;;;;;13.72;5.45;;;;;;;3.24;57.60;102006.83;1740078;80;21038;-54
2022/02/27 05:35:49;;;;;;;15.00;5.25;;;;;;;3.26;57.47;102003.32;1736026;80;21062;-54
2022/02/27 05:38:15;;;;;;;11.15;5.10;;;;;;;3.31;57.32;102005.37;1740871;80;21104;-54
2022/02/27 05:40:42;;;;;;;10.32;5.10;;;;;;;3.34;57.16;102001.36;1736442;81;21052;-54
2022/02/27 05:43:09;;;;;;;11.05;5.67;;;;;;;3.38;57.00;102003.48;1736361;80;21064;-54
2022/02/27 05:45:35;;;;;;;13.60;5.55;;;;;;;3.42;56.84;102005.09;1731189;82;21060;-54
2022/02/27 05:48:01;;;;;;;10.68;5.35;;;;;;;3.45;56.76;102011.53;1706612;82;21659;-54
2022/02/27 05:50:28;;;;;;;11.88;5.15;;;;;;;3.49;56.62;102014.45;1732881;80;21876;-53
2022/02/27 05:52:55;;;;;;;8.88;4.72;;;;;;;3.46;56.50;102009.78;1743694;80;21048;-53
2022/02/27 05:55:21;;;;;;;10.45;4.70;;;;;;;3.42;56.57;102015.50;1740029;80;21518;-54
2022/02/27 05:57:48;;;;;;;9.08;4.37;;;;;;;3.38;56.63;102020.39;1739140;80;21073;-53
2022/02/27 06:00:16;;;;;;;14.55;5.33;;;;;;;3.35;56.69;102014.80;1730539;82;21141;-54
2022/02/27 06:02:44;;;;;;;10.48;6.00;;;;;;;3.35;56.69;102016.55;1743992;80;21115;-54
2022/02/27 06:05:10;;;;;;;9.23;5.22;;;;;;;3.34;56.76;102017.43;1755741;80;21061;-54
2022/02/27 06:07:37;;;;;;;17.25;5.72;;;;;;;3.41;56.74;102020.28;1750995;80;21143;-54
2022/02/27 06:10:05;;;;;;;11.30;5.37;;;;;;;3.47;56.71;102020.15;1725568;80;21065;-53
2022/02/27 06:12:32;;;;;;;11.00;5.83;;;;;;;3.54;56.64;102020.86;1743925;80;21545;-54
2022/02/27 06:14:59;;;;;;;9.88;5.10;;;;;;;3.60;56.52;102021.14;1756578;80;21122;-53
2022/02/27 06:17:25;;;;;;;16.00;6.03;;;;;;;3.60;56.45;102024.62;1751685;80;21499;-53
2022/02/27 06:19:52;;;;;;;9.98;5.90;;;;;;;3.64;56.33;102026.70;1762429;80;21132;-53
2022/02/27 06:22:18;;;;;;;9.20;4.72;;;;;;;3.71;56.27;102019.14;1738294;80;21447;-53
2022/02/27 06:24:45;;;;;;;10.03;5.40;;;;;;;3.76;56.13;102025.08;1745215;80;21123;-53
2022/02/27 06:27:12;;;;;;;7.83;4.92;;;;;;;3.83;56.01;102027.09;1715034;82;22088;-53
2022/02/27 06:29:39;;;;;;;9.13;5.35;;;;;;;3.88;55.95;102026.09;1734435;80;21163;-53
2022/02/27 06:32:06;;;;;;;9.28;4.65;;;;;;;3.95;55.75;102028.52;1721664;80;21140;-54
2022/02/27 06:34:34;;;;;;;11.60;5.12;;;;;;;4.00;55.38;102025.34;1735786;80;21136;-53
2022/02/27 06:37:00;;;;;;;9.05;4.30;;;;;;;4.03;55.25;102025.27;1753389;80;21003;-55
2022/02/27 06:39:26;;;;;;;7.35;4.20;;;;;;;4.05;55.29;102018.27;1733423;80;21795;-53
2022/02/27 06:41:53;;;;;;;9.55;3.90;;;;;;;4.07;55.12;102021.70;1735483;80;21083;-53
2022/02/27 06:44:20;;;;;;;12.78;4.42;;;;;;;4.06;55.07;102023.89;1767642;80;21107;-53
2022/02/27 06:46:48;;;;;;;8.45;3.55;;;;;;;4.07;55.15;102023.85;1751519;80;21097;-53
2022/02/27 06:49:16;;;;;;;8.05;3.52;;;;;;;4.05;55.12;102017.84;1748480;80;21049;-53
2022/02/27 06:51:42;;;;;;;8.30;3.37;;;;;;;4.06;55.13;102027.80;1744087;80;21135;-52
2022/02/27 06:54:09;;;;;;;9.80;2.72;;;;;;;4.06;55.14;102024.73;1741834;80;20994;-54
2022/02/27 06:56:37;;;;;;;6.50;3.02;;;;;;;4.04;55.11;102027.84;1758585;80;21092;-54
2022/02/27 06:59:05;;;;;;;7.20;2.90;;;;;;;4.02;54.94;102026.19;1744584;80;21581;-54
2022/02/27 07:01:31;;;;;;;9.23;2.70;;;;;;;4.02;54.93;102025.73;1759423;80;21041;-54
2022/02/27 07:03:57;;;;;;;6.40;2.62;;;;;;;4.02;54.96;102035.30;1746600;80;21085;-55
2022/02/27 07:06:25;;;;;;;6.25;2.67;;;;;;;4.04;54.93;102031.75;1734929;79;21058;-54
2022/02/27 07:08:53;;;;;;;6.65;2.77;;;;;;;4.06;54.55;102031.70;1724534;80;21059;-55
2022/02/27 07:11:20;;;;;;;6.25;2.85;;;;;;;4.07;54.54;102037.34;1724920;80;21103;-54
2022/02/27 07:13:47;;;;;;;6.30;2.52;;;;;;;4.07;54.33;102032.12;1729866;80;21619;-54
2022/02/27 07:16:15;;;;;;;8.30;2.80;;;;;;;4.07;54.36;102034.73;1754834;80;21076;-55
2022/02/27 07:18:43;;;;;;;7.80;2.62;;;;;;;4.08;54.03;102032.52;1740090;80;21055;-54
2022/02/27 07:21:10;;;;;;;7.90;3.17;;;;;;;4.10;54.11;102028.11;1732934;80;21055;-54
2022/02/27 07:23:36;;;;;;;8.18;3.37;;;;;;;4.10;53.37;102032.02;1762517;80;21160;-54
2022/02/27 07:26:03;;;;;;;7.60;2.47;;;;;;;4.12;53.30;102029.38;1690339;83;21235;-54
2022/02/27 07:28:29;;;;;;;6.72;2.75;;;;;;;4.14;53.12;102032.81;1684717;83;21219;-54
2022/02/27 07:30:56;;;;;;;5.95;2.70;;;;;;;4.14;53.08;102028.45;1756375;80;21073;-55
2022/02/27 07:33:23;;;;;;;6.17;1.95;;;;;;;4.19;53.05;102033.09;1730681;80;21041;-54
2022/02/27 07:35:50;;;;;;;9.18;2.37;;;;;;;4.25;53.06;102027.73;1732963;80;21089;-54
2022/02/27 07:38:16;;;;;;;5.03;2.30;;;;;;;4.32;52.46;102027.53;1742187;80;21041;-54
2022/02/27 07:40:43;;;;;;;6.75;2.67;;;;;;;4.38;51.91;102028.22;1739918;80;21122;-54
2022/02/27 07:43:09;;;;;;;7.33;2.47;;;;;;;4.44;51.50;102031.13;1752716;80;21105;-54
2022/02/27 07:45:38;;;;;;;7.47;2.70;;;;;;;4.47;51.11;102031.02;1734429;82;21580;-55
2022/02/27 07:48:05;;;;;;;7.35;2.08;;;;;;;4.51;51.11;102031.34;1756440;80;21585;-54
2022/02/27 07:52:30;;;;;;;5.50;2.47;;;;;;;4.61;50.44;102031.95;1871111;75;22484;-54
2022/02/27 07:54:57;;;;;;;5.85;2.20;;;;;;;4.59;49.65;102026.78;1824740;77;21767;-54
2022/02/27 07:57:23;;;;;;;4.83;1.70;;;;;;;4.61;49.52;102026.28;1819987;78;21125;-54
2022/02/27 07:59:52;;;;;;;5.22;2.10;;;;;;;4.62;49.01;102031.03;1824039;77;21715;-53
2022/02/27 08:02:21;;;;;;;7.28;2.10;;;;;;;4.67;49.15;102034.81;1826864;77;21019;-54
2022/02/27 08:04:49;;;;;;;4.70;1.67;;;;;;;4.70;48.94;102029.52;1820553;77;21743;-54
2022/02/27 08:07:16;;;;;;;5.28;2.10;;;;;;;4.72;48.71;102033.77;1821191;77;21565;-53
2022/02/27 08:09:46;;;;;;;4.78;1.62;;;;;;;4.74;48.48;102030.70;1824406;77;21121;-53
2022/02/27 08:12:13;;;;;;;5.00;1.90;;;;;;;4.78;48.03;102024.48;1785191;78;21163;-52
2022/02/27 08:14:46;;;;;;;6.00;2.00;;;;;;;4.80;47.63;102030.95;1784679;78;21077;-53
2022/02/27 08:17:11;;;;;;;5.15;2.00;;;;;;;4.84;47.89;102030.83;1780607;78;21065;-53
2022/02/27 08:19:39;;;;;;;6.15;2.62;;;;;;;4.88;47.32;102033.34;1772361;78;21002;-54
2022/02/27 08:22:06;;;;;;;5.47;2.42;;;;;;;4.94;47.66;102036.63;1776432;79;21181;-54
2022/02/27 08:24:33;;;;;;;6.42;2.52;;;;;;;5.00;48.05;102032.52;1784989;78;21060;-53
2022/02/27 08:27:00;;;;;;;5.85;2.08;;;;;;;5.09;48.11;102021.39;1780632;78;21041;-54
2022/02/27 08:29:26;;;;;;;7.08;2.35;;;;;;;5.20;48.03;102027.14;1780495;78;21029;-54
2022/02/27 08:31:53;;;;;;;8.58;2.58;;;;;;;5.31;47.85;102025.06;1779165;80;21626;-54
2022/02/27 08:34:20;;;;;;;6.22;2.75;;;;;;;5.42;47.16;102019.95;1780847;78;21130;-53
2022/02/27 08:36:54;;;;;;;6.00;2.85;;;;;;;5.50;46.86;102020.55;1785230;80;21656;-54
2022/02/27 08:39:21;;;;;;;6.12;2.60;;;;;;;5.61;46.16;102028.02;1783837;79;21091;-54
2022/02/27 08:41:48;;;;;;;5.83;2.12;;;;;;;5.70;45.88;102024.66;1784276;78;21052;-53
2022/02/27 08:44:14;;;;;;;7.08;2.72;;;;;;;5.79;45.01;102022.19;1783165;78;21077;-53
2022/02/27 08:46:42;;;;;;;6.22;2.37;;;;;;;5.88;44.57;102019.25;1756414;78;21021;-53
2022/02/27 08:49:09;;;;;;;6.83;2.20;;;;;;;5.95;43.95;102018.58;1769316;79;21669;-54
2022/02/27 08:51:36;;;;;;;5.55;2.22;;;;;;;5.97;43.52;102014.65;1792105;78;21019;-53
2022/02/27 08:54:03;;;;;;;5.25;1.72;;;;;;;5.99;43.58;102005.86;1764574;80;21010;-54
2022/02/27 08:56:30;;;;;;;10.63;2.47;;;;;;;6.04;43.28;102007.86;1768549;80;21606;-53
2022/02/27 08:58:57;;;;;;;5.85;1.92;;;;;;;6.06;42.58;102012.57;1772344;80;21057;-53
2022/02/27 09:01:25;;;;;;;6.42;1.80;;;;;;;6.07;42.86;102009.06;1765265;79;21664;-54
2022/02/27 09:03:52;;;;;;;5.30;1.90;;;;;;;6.08;42.41;102001.61;1769649;79;21019;-54
2022/02/27 09:06:19;;;;;;;5.08;1.87;;;;;;;6.07;41.87;102007.76;1773276;80;21126;-53
2022/02/27 09:08:47;;;;;;;4.60;1.85;;;;;;;6.12;42.27;102006.30;1764642;79;21537;-53
2022/02/27 09:11:15;;;;;;;5.75;1.85;;;;;;;6.14;41.46;102006.63;1761090;79;21607;-53
2022/02/27 09:13:42;;;;;;;4.60;1.30;;;;;;;6.20;42.26;102004.70;1767237;80;21478;-53
2022/02/27 09:16:09;;;;;;;3.30;0.95;;;;;;;6.22;41.01;101998.52;1765482;80;21136;-54
2022/02/27 09:18:36;;;;;;;4.53;1.00;;;;;;;6.24;39.62;101998.47;1763984;80;21510;-53
2022/02/27 09:21:03;;;;;;;3.58;0.75;;;;;;;6.28;39.24;101998.28;1764768;79;21009;-54
2022/02/27 09:23:31;;;;;;;2.65;0.68;;;;;;;6.31;37.60;101999.95;1764560;80;21687;-53
2022/02/27 09:25:58;;;;;;;1.20;0.30;;;;;;;6.32;37.70;101999.02;1758870;79;21191;-54
2022/02/27 09:28:25;;;;;;;2.37;0.78;;;;;;;6.36;37.76;101999.78;1763717;80;21080;-54
2022/02/27 09:30:53;;;;;;;3.40;0.72;;;;;;;6.41;37.56;102002.63;1765359;80;21535;-54
2022/02/27 09:33:20;;;;;;;2.67;0.68;;;;;;;6.49;37.72;102001.89;1763498;80;21061;-52
2022/02/27 09:35:47;;;;;;;2.80;0.78;;;;;;;6.60;37.44;101995.41;1762224;79;21052;-54
2022/02/27 09:38:13;;;;;;;3.08;0.95;;;;;;;6.69;37.47;101998.96;1763413;80;21129;-55
2022/02/27 09:40:40;;;;;;;4.33;0.98;;;;;;;6.72;37.33;101997.55;1765855;79;21086;-54
2022/02/27 09:43:07;;;;;;;3.30;0.88;;;;;;;6.72;36.89;101987.55;1767158;80;21037;-53
2022/02/27 09:45:34;;;;;;;2.65;0.93;;;;;;;6.70;37.67;101990.22;1767517;79;21526;-53
2022/02/27 09:48:01;;;;;;;3.60;1.05;;;;;;;6.68;37.77;101990.27;1767848;80;21123;-53
2022/02/27 09:50:29;;;;;;;3.58;1.27;;;;;;;6.63;37.30;101992.67;1729464;80;21548;-54
2022/02/27 09:52:56;;;;;;;3.30;0.80;;;;;;;6.57;37.51;101992.43;1759444;80;21059;-53
2022/02/27 09:55:28;;;;;;;3.65;1.00;;;;;;;6.57;37.85;101995.51;1757040;80;21051;-54
2022/02/27 09:57:55;;;;;;;4.85;1.40;;;;;;;6.60;38.25;101990.17;1771439;80;21073;-54
2022/02/27 10:00:22;;;;;;;4.37;1.20;;;;;;;6.68;38.70;101984.20;1759893;79;21133;-54
2022/02/27 10:03:07;;;;;;;3.98;0.80;;;;;;;6.78;38.87;101981.63;1748386;80;21063;-53
2022/02/27 10:05:37;;;;;;;2.50;0.80;;;;;;;6.86;39.02;101987.41;1754013;80;21044;-54
2022/02/27 10:08:05;;;;;;;2.55;0.80;;;;;;;6.93;39.75;101984.10;1754040;81;21129;-53
2022/02/27 10:10:31;;;;;;;2.70;0.88;;;;;;;6.95;39.00;101978.34;1777150;78;21042;-54
2022/02/27 10:12:58;;;;;;;3.10;1.02;;;;;;;6.98;39.02;101985.23;1782934;78;21186;-54
2022/02/27 10:15:25;;;;;;;4.90;1.22;;;;;;;6.99;38.82;101985.18;1781097;78;21061;-53
2022/02/27 10:17:52;;;;;;;5.70;0.93;;;;;;;6.98;38.77;101978.70;1778374;78;21091;-55
2022/02/27 10:20:20;;;;;;;3.47;1.05;;;;;;;6.96;38.31;101981.80;1781115;79;21568;-54
2022/02/27 10:22:49;;;;;;;3.35;0.90;;;;;;;6.93;37.96;101979.34;1786370;78;21450;-54
2022/02/27 10:25:23;;;;;;;4.90;0.85;;;;;;;6.92;37.61;101982.39;1772301;78;21102;-54
2022/02/27 10:27:52;;;;;;;3.05;0.90;;;;;;;6.90;36.78;101973.75;1726351;80;21513;-53
2022/02/27 10:30:30;;;;;;;4.72;1.22;;;;;;;6.89;37.13;101974.66;1760121;80;21048;-54
2022/02/27 10:33:04;;;;;;;2.33;0.72;;;;;;;6.91;37.22;101971.55;1779698;78;21097;-53
2022/02/27 10:35:44;;;;;;;2.35;0.70;;;;;;;6.95;36.75;101973.11;1767107;79;21084;-52
2022/02/27 10:38:18;;;;;;;1.67;0.50;;;;;;;7.01;37.26;101965.03;1779529;80;21189;-52
2022/02/27 10:40:49;;;;;;;2.83;0.85;;;;;;;7.05;36.65;101966.59;1757984;79;21007;-53
2022/02/27 10:43:17;;;;;;;2.62;0.70;;;;;;;7.06;36.36;101965.70;1770165;79;21036;-53
2022/02/27 10:45:44;;;;;;;2.72;0.85;;;;;;;7.01;36.47;101970.70;1766000;79;21062;-54
2022/02/27 10:48:15;;;;;;;2.10;0.60;;;;;;;6.97;37.21;101969.13;1775313;79;21548;-54
2022/02/27 10:50:45;;;;;;;2.65;0.47;;;;;;;6.93;36.98;101974.10;1765824;79;21134;-54
2022/02/27 10:53:15;;;;;;;2.85;0.88;;;;;;;6.91;37.15;101972.84;1791319;79;21071;-54
2022/02/27 10:55:41;;;;;;;2.60;0.57;;;;;;;6.91;36.22;101966.74;1787905;78;21540;-53
2022/02/27 10:58:09;;;;;;;2.77;0.42;;;;;;;6.97;35.92;101954.73;1782323;78;21073;-53
2022/02/27 11:00:36;;;;;;;2.95;0.82;;;;;;;6.99;36.27;101958.13;1766874;79;21057;-54
2022/02/27 11:03:08;;;;;;;2.62;0.60;;;;;;;7.00;36.50;101958.08;1789462;78;21102;-53
2022/02/27 11:05:39;;;;;;;2.90;0.60;;;;;;;6.99;36.05;101960.75;1784060;79;21057;-54
2022/02/27 11:08:10;;;;;;;1.87;0.55;;;;;;;6.94;36.06;101956.16;1784611;78;22596;-53
2022/02/27 11:10:40;;;;;;;1.75;0.50;;;;;;;6.88;35.91;101952.88;1795731;78;21077;-53
2022/02/27 11:13:10;;;;;;;2.87;0.75;;;;;;;6.90;35.92;101950.66;1794059;78;21020;-54
2022/02/27 11:15:37;;;;;;;2.80;0.88;;;;;;;6.90;35.82;101950.20;1789881;79;21160;-54
2022/02/27 11:18:05;;;;;;;2.58;0.80;;;;;;;6.93;35.60;101951.86;1793665;79;21074;-53
2022/02/27 11:20:32;;;;;;;2.80;0.50;;;;;;;6.99;35.63;101946.36;1790962;79;21150;-53
2022/02/27 11:22:58;;;;;;;2.85;0.80;;;;;;;7.02;35.19;101941.00;1788862;79;21700;-54
2022/02/27 11:25:27;;;;;;;2.87;0.82;;;;;;;7.11;35.82;101945.89;1796303;79;21535;-53
2022/02/27 11:28:03;;;;;;;3.08;0.70;;;;;;;7.21;35.70;101940.66;1789412;78;21140;-53
2022/02/27 11:30:34;;;;;;;3.65;0.78;;;;;;;7.33;35.27;101944.98;1782593;79;21050;-53
2022/02/27 11:33:06;;;;;;;1.37;0.40;;;;;;;7.43;34.67;101935.82;1761291;79;21060;-53